sensor_id;sensor_type;location;lat;lon;timestamp;P1;durP1;ratioP1;P2;durP2;ratioP2
4074;SDS011;2052;53.522;9.806;2023-06-04T00:00:40;8.10;;;3.23;;
4074;SDS011;2052;53.522;9.806;2023-06-04T00:03:07;4.50;;;3.00;;
4074;SDS011;2052;53.522;9.806;2023-06-04T00:05:33;5.70;;;2.60;;
4074;SDS011;2052;53.522;9.806;2023-06-04T00:08:01;7.60;;;3.30;;
4074;SDS011;2052;53.522;9.806;2023-06-04T00:10:28;3.43;;;3.13;;
4074;SDS011;2052;53.522;9.806;2023-06-04T00:12:55;5.73;;;3.23;;
4074;SDS011;2052;53.522;9.806;2023-06-04T00:15:22;3.97;;;3.57;;
4074;SDS011;2052;53.522;9.806;2023-06-04T00:17:49;3.43;;;3.13;;
4074;SDS011;2052;53.522;9.806;2023-06-04T00:20:17;3.30;;;3.00;;
4074;SDS011;2052;53.522;9.806;2023-06-04T00:22:44;6.60;;;3.87;;
4074;SDS011;2052;53.522;9.806;2023-06-04T00:25:12;8.70;;;3.80;;
4074;SDS011;2052;53.522;9.806;2023-06-04T00:27:38;4.23;;;3.27;;
4074;SDS011;2052;53.522;9.806;2023-06-04T00:30:06;7.70;;;3.40;;
4074;SDS011;2052;53.522;9.806;2023-06-04T00:32:33;8.80;;;3.47;;
4074;SDS011;2052;53.522;9.806;2023-06-04T00:34:59;5.63;;;3.70;;
4074;SDS011;2052;53.522;9.806;2023-06-04T00:37:27;4.03;;;3.40;;
4074;SDS011;2052;53.522;9.806;2023-06-04T00:39:54;6.30;;;3.07;;
4074;SDS011;2052;53.522;9.806;2023-06-04T00:42:22;5.20;;;3.27;;
4074;SDS011;2052;53.522;9.806;2023-06-04T00:44:49;6.00;;;3.07;;
4074;SDS011;2052;53.522;9.806;2023-06-04T00:47:16;4.53;;;3.50;;
4074;SDS011;2052;53.522;9.806;2023-06-04T00:49:44;6.17;;;3.53;;
4074;SDS011;2052;53.522;9.806;2023-06-04T00:52:11;4.37;;;3.50;;
4074;SDS011;2052;53.522;9.806;2023-06-04T00:54:40;4.70;;;3.43;;
4074;SDS011;2052;53.522;9.806;2023-06-04T00:57:06;4.23;;;3.07;;
4074;SDS011;2052;53.522;9.806;2023-06-04T00:59:36;3.17;;;2.87;;
4074;SDS011;2052;53.522;9.806;2023-06-04T01:02:05;7.50;;;3.70;;
4074;SDS011;2052;53.522;9.806;2023-06-04T01:04:36;3.40;;;3.10;;
4074;SDS011;2052;53.522;9.806;2023-06-04T01:07:04;7.97;;;3.17;;
4074;SDS011;2052;53.522;9.806;2023-06-04T01:09:33;3.83;;;2.90;;
4074;SDS011;2052;53.522;9.806;2023-06-04T01:12:03;3.87;;;2.77;;
4074;SDS011;2052;53.522;9.806;2023-06-04T01:14:30;5.03;;;3.47;;
4074;SDS011;2052;53.522;9.806;2023-06-04T01:17:01;5.73;;;3.30;;
4074;SDS011;2052;53.522;9.806;2023-06-04T01:22:30;3.60;;;3.23;;
4074;SDS011;2052;53.522;9.806;2023-06-04T01:25:03;5.20;;;3.33;;
4074;SDS011;2052;53.522;9.806;2023-06-04T01:27:31;4.23;;;3.20;;
4074;SDS011;2052;53.522;9.806;2023-06-04T01:30:00;5.50;;;3.13;;
4074;SDS011;2052;53.522;9.806;2023-06-04T01:32:29;4.40;;;3.60;;
4074;SDS011;2052;53.522;9.806;2023-06-04T01:34:56;5.63;;;3.10;;
4074;SDS011;2052;53.522;9.806;2023-06-04T01:37:22;5.80;;;3.77;;
4074;SDS011;2052;53.522;9.806;2023-06-04T01:39:49;7.83;;;3.60;;
4074;SDS011;2052;53.522;9.806;2023-06-04T01:42:16;6.23;;;3.43;;
4074;SDS011;2052;53.522;9.806;2023-06-04T01:44:42;6.60;;;3.97;;
4074;SDS011;2052;53.522;9.806;2023-06-04T01:47:09;6.00;;;3.70;;
4074;SDS011;2052;53.522;9.806;2023-06-04T01:49:37;5.70;;;3.97;;
4074;SDS011;2052;53.522;9.806;2023-06-04T01:52:05;5.13;;;3.80;;
4074;SDS011;2052;53.522;9.806;2023-06-04T01:54:32;6.00;;;3.40;;
4074;SDS011;2052;53.522;9.806;2023-06-04T01:56:59;5.90;;;4.00;;
4074;SDS011;2052;53.522;9.806;2023-06-04T01:59:26;5.50;;;3.47;;
4074;SDS011;2052;53.522;9.806;2023-06-04T02:01:52;5.80;;;3.50;;
4074;SDS011;2052;53.522;9.806;2023-06-04T02:04:19;4.97;;;3.70;;
4074;SDS011;2052;53.522;9.806;2023-06-04T02:06:47;6.63;;;4.23;;
4074;SDS011;2052;53.522;9.806;2023-06-04T02:09:14;7.10;;;3.87;;
4074;SDS011;2052;53.522;9.806;2023-06-04T02:11:41;5.87;;;4.03;;
4074;SDS011;2052;53.522;9.806;2023-06-04T02:14:09;4.67;;;3.67;;
4074;SDS011;2052;53.522;9.806;2023-06-04T02:16:36;5.13;;;3.47;;
4074;SDS011;2052;53.522;9.806;2023-06-04T02:19:04;5.60;;;3.70;;
4074;SDS011;2052;53.522;9.806;2023-06-04T02:21:31;3.87;;;3.47;;
4074;SDS011;2052;53.522;9.806;2023-06-04T02:23:59;6.07;;;3.60;;
4074;SDS011;2052;53.522;9.806;2023-06-04T02:26:25;5.60;;;3.50;;
4074;SDS011;2052;53.522;9.806;2023-06-04T02:28:52;6.40;;;3.80;;
4074;SDS011;2052;53.522;9.806;2023-06-04T02:31:18;4.60;;;3.37;;
4074;SDS011;2052;53.522;9.806;2023-06-04T02:33:46;7.63;;;3.77;;
4074;SDS011;2052;53.522;9.806;2023-06-04T02:36:13;4.27;;;3.30;;
4074;SDS011;2052;53.522;9.806;2023-06-04T02:38:40;6.37;;;3.90;;
4074;SDS011;2052;53.522;9.806;2023-06-04T02:41:08;4.73;;;3.10;;
4074;SDS011;2052;53.522;9.806;2023-06-04T02:43:36;7.60;;;4.20;;
4074;SDS011;2052;53.522;9.806;2023-06-04T02:46:02;4.30;;;3.77;;
4074;SDS011;2052;53.522;9.806;2023-06-04T02:48:29;5.37;;;3.90;;
4074;SDS011;2052;53.522;9.806;2023-06-04T02:50:55;3.80;;;3.50;;
4074;SDS011;2052;53.522;9.806;2023-06-04T02:53:23;5.77;;;3.90;;
4074;SDS011;2052;53.522;9.806;2023-06-04T02:55:50;5.13;;;3.80;;
4074;SDS011;2052;53.522;9.806;2023-06-04T02:58:18;3.40;;;3.10;;
4074;SDS011;2052;53.522;9.806;2023-06-04T03:00:46;7.60;;;3.50;;
4074;SDS011;2052;53.522;9.806;2023-06-04T03:03:15;6.47;;;3.47;;
4074;SDS011;2052;53.522;9.806;2023-06-04T03:05:41;10.13;;;3.73;;
4074;SDS011;2052;53.522;9.806;2023-06-04T03:08:08;4.50;;;3.87;;
4074;SDS011;2052;53.522;9.806;2023-06-04T03:10:34;6.30;;;4.13;;
4074;SDS011;2052;53.522;9.806;2023-06-04T03:13:01;6.50;;;3.90;;
4074;SDS011;2052;53.522;9.806;2023-06-04T03:15:29;4.83;;;3.60;;
4074;SDS011;2052;53.522;9.806;2023-06-04T03:17:55;7.80;;;4.77;;
4074;SDS011;2052;53.522;9.806;2023-06-04T03:20:22;4.70;;;3.80;;
4074;SDS011;2052;53.522;9.806;2023-06-04T03:22:49;5.17;;;3.60;;
4074;SDS011;2052;53.522;9.806;2023-06-04T03:25:16;5.47;;;3.53;;
4074;SDS011;2052;53.522;9.806;2023-06-04T03:27:42;6.30;;;5.03;;
4074;SDS011;2052;53.522;9.806;2023-06-04T03:30:09;11.03;;;5.30;;
4074;SDS011;2052;53.522;9.806;2023-06-04T03:32:38;13.43;;;5.83;;
4074;SDS011;2052;53.522;9.806;2023-06-04T03:35:04;11.60;;;6.30;;
4074;SDS011;2052;53.522;9.806;2023-06-04T03:37:32;13.07;;;7.10;;
4074;SDS011;2052;53.522;9.806;2023-06-04T03:39:59;11.50;;;5.83;;
4074;SDS011;2052;53.522;9.806;2023-06-04T03:42:26;10.97;;;5.30;;
4074;SDS011;2052;53.522;9.806;2023-06-04T03:44:52;8.40;;;4.67;;
4074;SDS011;2052;53.522;9.806;2023-06-04T03:47:19;7.97;;;4.63;;
4074;SDS011;2052;53.522;9.806;2023-06-04T03:49:48;8.93;;;4.87;;
4074;SDS011;2052;53.522;9.806;2023-06-04T03:52:14;4.90;;;3.50;;
4074;SDS011;2052;53.522;9.806;2023-06-04T03:54:41;5.70;;;4.17;;
4074;SDS011;2052;53.522;9.806;2023-06-04T03:57:07;5.47;;;3.57;;
4074;SDS011;2052;53.522;9.806;2023-06-04T03:59:34;5.03;;;4.10;;
4074;SDS011;2052;53.522;9.806;2023-06-04T04:02:01;5.07;;;4.03;;
4074;SDS011;2052;53.522;9.806;2023-06-04T04:04:28;6.57;;;4.17;;
4074;SDS011;2052;53.522;9.806;2023-06-04T04:06:56;7.93;;;4.23;;
4074;SDS011;2052;53.522;9.806;2023-06-04T04:09:22;4.40;;;3.90;;
4074;SDS011;2052;53.522;9.806;2023-06-04T04:11:49;5.20;;;3.80;;
4074;SDS011;2052;53.522;9.806;2023-06-04T04:14:16;5.53;;;4.80;;
4074;SDS011;2052;53.522;9.806;2023-06-04T04:16:43;5.63;;;3.60;;
4074;SDS011;2052;53.522;9.806;2023-06-04T04:19:10;4.00;;;3.60;;
4074;SDS011;2052;53.522;9.806;2023-06-04T04:21:36;5.47;;;4.00;;
4074;SDS011;2052;53.522;9.806;2023-06-04T04:24:05;6.63;;;3.60;;
4074;SDS011;2052;53.522;9.806;2023-06-04T04:26:32;6.03;;;4.07;;
4074;SDS011;2052;53.522;9.806;2023-06-04T04:28:59;8.40;;;3.80;;
4074;SDS011;2052;53.522;9.806;2023-06-04T04:31:26;4.23;;;3.23;;
4074;SDS011;2052;53.522;9.806;2023-06-04T04:33:54;7.53;;;3.53;;
4074;SDS011;2052;53.522;9.806;2023-06-04T04:36:21;5.33;;;3.40;;
4074;SDS011;2052;53.522;9.806;2023-06-04T04:38:48;6.50;;;3.83;;
4074;SDS011;2052;53.522;9.806;2023-06-04T04:41:20;4.37;;;3.30;;
4074;SDS011;2052;53.522;9.806;2023-06-04T04:43:47;4.60;;;2.87;;
4074;SDS011;2052;53.522;9.806;2023-06-04T04:46:16;6.13;;;3.43;;
4074;SDS011;2052;53.522;9.806;2023-06-04T04:48:42;4.60;;;3.00;;
4074;SDS011;2052;53.522;9.806;2023-06-04T04:51:09;2.70;;;2.50;;
4074;SDS011;2052;53.522;9.806;2023-06-04T04:53:35;4.93;;;2.77;;
4074;SDS011;2052;53.522;9.806;2023-06-04T04:56:02;5.13;;;3.47;;
4074;SDS011;2052;53.522;9.806;2023-06-04T04:58:30;8.53;;;3.37;;
4074;SDS011;2052;53.522;9.806;2023-06-04T05:00:56;6.30;;;3.10;;
4074;SDS011;2052;53.522;9.806;2023-06-04T05:03:23;10.40;;;3.80;;
4074;SDS011;2052;53.522;9.806;2023-06-04T05:05:49;5.40;;;2.93;;
4074;SDS011;2052;53.522;9.806;2023-06-04T05:08:16;3.37;;;2.87;;
4074;SDS011;2052;53.522;9.806;2023-06-04T05:10:42;5.80;;;2.97;;
4074;SDS011;2052;53.522;9.806;2023-06-04T05:13:09;3.30;;;2.43;;
4074;SDS011;2052;53.522;9.806;2023-06-04T05:15:37;6.37;;;2.67;;
4074;SDS011;2052;53.522;9.806;2023-06-04T05:18:05;8.80;;;2.70;;
4074;SDS011;2052;53.522;9.806;2023-06-04T05:20:32;4.63;;;3.03;;
4074;SDS011;2052;53.522;9.806;2023-06-04T05:23:00;5.30;;;2.63;;
4074;SDS011;2052;53.522;9.806;2023-06-04T05:25:27;5.50;;;2.83;;
4074;SDS011;2052;53.522;9.806;2023-06-04T05:28:25;5.03;;;2.53;;
4074;SDS011;2052;53.522;9.806;2023-06-04T05:30:54;3.97;;;2.53;;
4074;SDS011;2052;53.522;9.806;2023-06-04T05:33:23;8.00;;;2.70;;
4074;SDS011;2052;53.522;9.806;2023-06-04T05:35:50;6.10;;;2.40;;
4074;SDS011;2052;53.522;9.806;2023-06-04T05:38:19;9.00;;;2.77;;
4074;SDS011;2052;53.522;9.806;2023-06-04T05:40:45;4.50;;;2.50;;
4074;SDS011;2052;53.522;9.806;2023-06-04T05:43:12;6.87;;;2.90;;
4074;SDS011;2052;53.522;9.806;2023-06-04T05:45:40;4.73;;;2.70;;
4074;SDS011;2052;53.522;9.806;2023-06-04T05:48:07;8.03;;;2.70;;
4074;SDS011;2052;53.522;9.806;2023-06-04T05:50:34;4.47;;;2.30;;
4074;SDS011;2052;53.522;9.806;2023-06-04T05:53:01;5.63;;;2.23;;
4074;SDS011;2052;53.522;9.806;2023-06-04T05:55:27;4.37;;;2.20;;
4074;SDS011;2052;53.522;9.806;2023-06-04T05:57:54;4.90;;;2.90;;
4074;SDS011;2052;53.522;9.806;2023-06-04T06:00:21;5.20;;;2.73;;
4074;SDS011;2052;53.522;9.806;2023-06-04T06:02:50;4.30;;;2.27;;
4074;SDS011;2052;53.522;9.806;2023-06-04T06:05:17;7.80;;;2.77;;
4074;SDS011;2052;53.522;9.806;2023-06-04T06:07:44;4.90;;;2.47;;
4074;SDS011;2052;53.522;9.806;2023-06-04T06:10:12;4.07;;;2.10;;
4074;SDS011;2052;53.522;9.806;2023-06-04T06:12:40;4.90;;;2.37;;
4074;SDS011;2052;53.522;9.806;2023-06-04T06:15:08;3.57;;;1.90;;
4074;SDS011;2052;53.522;9.806;2023-06-04T06:17:35;6.10;;;2.40;;
4074;SDS011;2052;53.522;9.806;2023-06-04T06:20:04;5.43;;;2.37;;
4074;SDS011;2052;53.522;9.806;2023-06-04T06:22:32;3.17;;;1.90;;
4074;SDS011;2052;53.522;9.806;2023-06-04T06:24:59;6.27;;;2.03;;
4074;SDS011;2052;53.522;9.806;2023-06-04T06:27:26;4.73;;;2.27;;
4074;SDS011;2052;53.522;9.806;2023-06-04T06:29:52;10.90;;;2.50;;
4074;SDS011;2052;53.522;9.806;2023-06-04T06:32:19;3.20;;;2.00;;
4074;SDS011;2052;53.522;9.806;2023-06-04T06:34:46;4.17;;;2.20;;
4074;SDS011;2052;53.522;9.806;2023-06-04T06:37:13;6.03;;;2.20;;
4074;SDS011;2052;53.522;9.806;2023-06-04T06:39:40;3.93;;;1.87;;
4074;SDS011;2052;53.522;9.806;2023-06-04T06:42:07;3.50;;;1.80;;
4074;SDS011;2052;53.522;9.806;2023-06-04T06:44:33;4.50;;;1.80;;
4074;SDS011;2052;53.522;9.806;2023-06-04T06:47:00;6.33;;;1.87;;
4074;SDS011;2052;53.522;9.806;2023-06-04T06:49:26;6.37;;;2.00;;
4074;SDS011;2052;53.522;9.806;2023-06-04T06:51:53;2.80;;;1.63;;
4074;SDS011;2052;53.522;9.806;2023-06-04T06:54:21;3.07;;;1.93;;
4074;SDS011;2052;53.522;9.806;2023-06-04T06:56:48;4.60;;;2.10;;
4074;SDS011;2052;53.522;9.806;2023-06-04T06:59:14;5.00;;;1.50;;
4074;SDS011;2052;53.522;9.806;2023-06-04T07:01:41;6.57;;;1.90;;
4074;SDS011;2052;53.522;9.806;2023-06-04T07:04:07;3.07;;;2.00;;
4074;SDS011;2052;53.522;9.806;2023-06-04T07:06:34;3.43;;;2.00;;
4074;SDS011;2052;53.522;9.806;2023-06-04T07:09:02;5.30;;;1.70;;
4074;SDS011;2052;53.522;9.806;2023-06-04T07:11:30;4.27;;;2.30;;
4074;SDS011;2052;53.522;9.806;2023-06-04T07:13:57;4.30;;;1.93;;
4074;SDS011;2052;53.522;9.806;2023-06-04T07:16:24;3.27;;;1.50;;
4074;SDS011;2052;53.522;9.806;2023-06-04T07:18:50;3.63;;;1.90;;
4074;SDS011;2052;53.522;9.806;2023-06-04T07:21:17;3.80;;;1.70;;
4074;SDS011;2052;53.522;9.806;2023-06-04T07:23:44;3.50;;;2.30;;
4074;SDS011;2052;53.522;9.806;2023-06-04T07:26:14;4.57;;;2.00;;
4074;SDS011;2052;53.522;9.806;2023-06-04T07:28:43;4.77;;;1.90;;
4074;SDS011;2052;53.522;9.806;2023-06-04T07:31:09;5.23;;;2.23;;
4074;SDS011;2052;53.522;9.806;2023-06-04T07:33:36;1.80;;;1.53;;
4074;SDS011;2052;53.522;9.806;2023-06-04T07:36:08;2.50;;;1.53;;
4074;SDS011;2052;53.522;9.806;2023-06-04T07:38:35;3.67;;;2.00;;
4074;SDS011;2052;53.522;9.806;2023-06-04T07:41:01;4.37;;;1.70;;
4074;SDS011;2052;53.522;9.806;2023-06-04T07:43:28;2.90;;;1.90;;
4074;SDS011;2052;53.522;9.806;2023-06-04T07:45:55;4.40;;;1.70;;
4074;SDS011;2052;53.522;9.806;2023-06-04T07:48:22;1.50;;;1.00;;
4074;SDS011;2052;53.522;9.806;2023-06-04T07:50:55;2.73;;;1.67;;
4074;SDS011;2052;53.522;9.806;2023-06-04T07:53:22;4.53;;;1.90;;
4074;SDS011;2052;53.522;9.806;2023-06-04T07:55:49;5.33;;;1.80;;
4074;SDS011;2052;53.522;9.806;2023-06-04T07:58:15;4.20;;;1.43;;
4074;SDS011;2052;53.522;9.806;2023-06-04T08:00:42;3.77;;;1.70;;
4074;SDS011;2052;53.522;9.806;2023-06-04T08:03:10;5.30;;;1.63;;
4074;SDS011;2052;53.522;9.806;2023-06-04T08:05:37;2.53;;;1.23;;
4074;SDS011;2052;53.522;9.806;2023-06-04T08:08:03;4.03;;;1.67;;
4074;SDS011;2052;53.522;9.806;2023-06-04T08:10:32;3.37;;;2.37;;
4074;SDS011;2052;53.522;9.806;2023-06-04T08:12:59;2.63;;;1.60;;
4074;SDS011;2052;53.522;9.806;2023-06-04T08:15:25;3.73;;;1.40;;
4074;SDS011;2052;53.522;9.806;2023-06-04T08:17:52;3.07;;;1.47;;
4074;SDS011;2052;53.522;9.806;2023-06-04T08:20:20;4.27;;;1.90;;
4074;SDS011;2052;53.522;9.806;2023-06-04T08:22:47;1.70;;;1.20;;
4074;SDS011;2052;53.522;9.806;2023-06-04T08:25:13;2.60;;;1.90;;
4074;SDS011;2052;53.522;9.806;2023-06-04T08:27:40;3.10;;;1.57;;
4074;SDS011;2052;53.522;9.806;2023-06-04T08:30:08;2.70;;;1.27;;
4074;SDS011;2052;53.522;9.806;2023-06-04T08:32:35;1.80;;;1.00;;
4074;SDS011;2052;53.522;9.806;2023-06-04T08:35:01;1.93;;;1.83;;
4074;SDS011;2052;53.522;9.806;2023-06-04T08:37:30;8.30;;;1.70;;
4074;SDS011;2052;53.522;9.806;2023-06-04T08:39:57;2.60;;;1.37;;
4074;SDS011;2052;53.522;9.806;2023-06-04T08:42:26;3.43;;;1.70;;
4074;SDS011;2052;53.522;9.806;2023-06-04T08:44:55;4.10;;;1.47;;
4074;SDS011;2052;53.522;9.806;2023-06-04T08:47:23;2.67;;;1.40;;
4074;SDS011;2052;53.522;9.806;2023-06-04T08:49:51;4.27;;;1.47;;
4074;SDS011;2052;53.522;9.806;2023-06-04T08:52:18;2.03;;;1.37;;
4074;SDS011;2052;53.522;9.806;2023-06-04T08:54:49;4.83;;;2.70;;
4074;SDS011;2052;53.522;9.806;2023-06-04T08:57:16;4.63;;;1.67;;
4074;SDS011;2052;53.522;9.806;2023-06-04T08:59:43;3.60;;;1.70;;
4074;SDS011;2052;53.522;9.806;2023-06-04T09:02:38;7.10;;;1.90;;
4074;SDS011;2052;53.522;9.806;2023-06-04T09:05:14;2.27;;;1.50;;
4074;SDS011;2052;53.522;9.806;2023-06-04T09:07:46;6.90;;;1.57;;
4074;SDS011;2052;53.522;9.806;2023-06-04T09:10:17;2.47;;;1.53;;
4074;SDS011;2052;53.522;9.806;2023-06-04T09:12:46;4.10;;;1.60;;
4074;SDS011;2052;53.522;9.806;2023-06-04T09:15:14;1.70;;;1.23;;
4074;SDS011;2052;53.522;9.806;2023-06-04T09:17:40;1.93;;;1.10;;
4074;SDS011;2052;53.522;9.806;2023-06-04T09:20:08;2.63;;;1.40;;
4074;SDS011;2052;53.522;9.806;2023-06-04T09:22:45;2.70;;;1.23;;
4074;SDS011;2052;53.522;9.806;2023-06-04T09:25:21;2.73;;;1.30;;
4074;SDS011;2052;53.522;9.806;2023-06-04T09:27:50;2.47;;;1.50;;
4074;SDS011;2052;53.522;9.806;2023-06-04T09:30:18;2.23;;;1.27;;
4074;SDS011;2052;53.522;9.806;2023-06-04T09:32:44;3.60;;;1.37;;
4074;SDS011;2052;53.522;9.806;2023-06-04T09:35:11;2.10;;;1.60;;
4074;SDS011;2052;53.522;9.806;2023-06-04T09:37:51;3.23;;;1.30;;
4074;SDS011;2052;53.522;9.806;2023-06-04T09:43:05;5.23;;;1.90;;
4074;SDS011;2052;53.522;9.806;2023-06-04T09:45:35;3.77;;;2.63;;
4074;SDS011;2052;53.522;9.806;2023-06-04T09:48:02;1.93;;;1.60;;
4074;SDS011;2052;53.522;9.806;2023-06-04T09:50:30;3.80;;;1.80;;
4074;SDS011;2052;53.522;9.806;2023-06-04T09:52:58;1.83;;;1.57;;
4074;SDS011;2052;53.522;9.806;2023-06-04T09:55:25;2.33;;;1.53;;
4074;SDS011;2052;53.522;9.806;2023-06-04T09:57:56;3.57;;;1.77;;
4074;SDS011;2052;53.522;9.806;2023-06-04T10:00:27;2.10;;;1.80;;
4074;SDS011;2052;53.522;9.806;2023-06-04T10:02:55;4.40;;;1.93;;
4074;SDS011;2052;53.522;9.806;2023-06-04T10:05:23;2.70;;;1.70;;
4074;SDS011;2052;53.522;9.806;2023-06-04T10:07:55;8.27;;;1.73;;
4074;SDS011;2052;53.522;9.806;2023-06-04T10:10:25;5.23;;;1.60;;
4074;SDS011;2052;53.522;9.806;2023-06-04T10:12:54;2.90;;;1.97;;
4074;SDS011;2052;53.522;9.806;2023-06-04T10:15:35;6.40;;;2.20;;
4074;SDS011;2052;53.522;9.806;2023-06-04T10:18:02;1.47;;;1.30;;
4074;SDS011;2052;53.522;9.806;2023-06-04T10:20:29;3.70;;;1.67;;
4074;SDS011;2052;53.522;9.806;2023-06-04T10:23:00;2.17;;;1.50;;
4074;SDS011;2052;53.522;9.806;2023-06-04T10:25:29;3.00;;;1.70;;
4074;SDS011;2052;53.522;9.806;2023-06-04T10:27:57;1.73;;;1.33;;
4074;SDS011;2052;53.522;9.806;2023-06-04T10:30:26;2.63;;;1.50;;
4074;SDS011;2052;53.522;9.806;2023-06-04T10:32:54;1.67;;;1.57;;
4074;SDS011;2052;53.522;9.806;2023-06-04T10:35:31;2.63;;;1.70;;
4074;SDS011;2052;53.522;9.806;2023-06-04T10:38:05;2.00;;;1.37;;
4074;SDS011;2052;53.522;9.806;2023-06-04T10:40:39;3.60;;;1.60;;
4074;SDS011;2052;53.522;9.806;2023-06-04T10:43:09;1.57;;;1.47;;
4074;SDS011;2052;53.522;9.806;2023-06-04T10:45:36;2.50;;;1.60;;
4074;SDS011;2052;53.522;9.806;2023-06-04T10:48:06;2.40;;;1.57;;
4074;SDS011;2052;53.522;9.806;2023-06-04T10:50:48;3.60;;;1.40;;
4074;SDS011;2052;53.522;9.806;2023-06-04T10:53:16;1.97;;;1.63;;
4074;SDS011;2052;53.522;9.806;2023-06-04T10:55:43;5.53;;;2.33;;
4074;SDS011;2052;53.522;9.806;2023-06-04T10:58:12;4.57;;;1.67;;
4074;SDS011;2052;53.522;9.806;2023-06-04T11:00:40;2.80;;;1.50;;
4074;SDS011;2052;53.522;9.806;2023-06-04T11:03:14;1.93;;;1.40;;
4074;SDS011;2052;53.522;9.806;2023-06-04T11:05:49;1.40;;;1.30;;
4074;SDS011;2052;53.522;9.806;2023-06-04T11:08:25;3.03;;;1.50;;
4074;SDS011;2052;53.522;9.806;2023-06-04T11:10:53;6.33;;;2.77;;
4074;SDS011;2052;53.522;9.806;2023-06-04T11:13:23;2.90;;;1.50;;
4074;SDS011;2052;53.522;9.806;2023-06-04T11:15:50;2.53;;;1.40;;
4074;SDS011;2052;53.522;9.806;2023-06-04T11:18:18;3.77;;;1.53;;
4074;SDS011;2052;53.522;9.806;2023-06-04T11:20:46;4.93;;;1.47;;
4074;SDS011;2052;53.522;9.806;2023-06-04T11:23:18;2.90;;;1.37;;
4074;SDS011;2052;53.522;9.806;2023-06-04T11:25:45;2.77;;;1.70;;
4074;SDS011;2052;53.522;9.806;2023-06-04T11:28:15;3.10;;;1.43;;
4074;SDS011;2052;53.522;9.806;2023-06-04T11:30:47;4.40;;;1.40;;
4074;SDS011;2052;53.522;9.806;2023-06-04T11:33:27;1.40;;;1.17;;
4074;SDS011;2052;53.522;9.806;2023-06-04T11:36:05;1.87;;;1.30;;
4074;SDS011;2052;53.522;9.806;2023-06-04T11:38:31;1.87;;;1.00;;
4074;SDS011;2052;53.522;9.806;2023-06-04T11:40:58;1.80;;;1.53;;
4074;SDS011;2052;53.522;9.806;2023-06-04T11:43:25;2.70;;;1.40;;
4074;SDS011;2052;53.522;9.806;2023-06-04T11:45:53;1.40;;;0.90;;
4074;SDS011;2052;53.522;9.806;2023-06-04T11:48:20;1.40;;;1.20;;
4074;SDS011;2052;53.522;9.806;2023-06-04T11:50:47;2.13;;;1.33;;
4074;SDS011;2052;53.522;9.806;2023-06-04T11:53:14;2.20;;;1.20;;
4074;SDS011;2052;53.522;9.806;2023-06-04T11:55:40;1.80;;;1.00;;
4074;SDS011;2052;53.522;9.806;2023-06-04T11:58:08;4.90;;;1.60;;
4074;SDS011;2052;53.522;9.806;2023-06-04T12:00:35;2.23;;;1.33;;
4074;SDS011;2052;53.522;9.806;2023-06-04T12:03:03;2.67;;;1.30;;
4074;SDS011;2052;53.522;9.806;2023-06-04T12:05:30;3.17;;;1.47;;
4074;SDS011;2052;53.522;9.806;2023-06-04T12:08:04;2.50;;;1.43;;
4074;SDS011;2052;53.522;9.806;2023-06-04T12:10:36;2.73;;;1.20;;
4074;SDS011;2052;53.522;9.806;2023-06-04T12:13:06;2.37;;;1.13;;
4074;SDS011;2052;53.522;9.806;2023-06-04T12:15:33;2.30;;;1.20;;
4074;SDS011;2052;53.522;9.806;2023-06-04T12:18:01;1.57;;;1.20;;
4074;SDS011;2052;53.522;9.806;2023-06-04T12:20:34;5.27;;;1.30;;
4074;SDS011;2052;53.522;9.806;2023-06-04T12:23:02;2.60;;;1.67;;
4074;SDS011;2052;53.522;9.806;2023-06-04T12:25:28;1.90;;;1.50;;
4074;SDS011;2052;53.522;9.806;2023-06-04T12:27:56;1.23;;;1.10;;
4074;SDS011;2052;53.522;9.806;2023-06-04T12:30:22;1.63;;;1.53;;
4074;SDS011;2052;53.522;9.806;2023-06-04T12:32:49;4.53;;;1.20;;
4074;SDS011;2052;53.522;9.806;2023-06-04T12:35:17;4.20;;;1.20;;
4074;SDS011;2052;53.522;9.806;2023-06-04T12:37:45;1.97;;;1.23;;
4074;SDS011;2052;53.522;9.806;2023-06-04T12:40:11;2.23;;;0.97;;
4074;SDS011;2052;53.522;9.806;2023-06-04T12:42:38;1.60;;;1.40;;
4074;SDS011;2052;53.522;9.806;2023-06-04T12:45:06;3.13;;;1.20;;
4074;SDS011;2052;53.522;9.806;2023-06-04T12:47:33;2.23;;;1.23;;
4074;SDS011;2052;53.522;9.806;2023-06-04T12:50:00;2.40;;;1.07;;
4074;SDS011;2052;53.522;9.806;2023-06-04T12:52:26;0.90;;;0.80;;
4074;SDS011;2052;53.522;9.806;2023-06-04T12:54:54;3.20;;;1.23;;
4074;SDS011;2052;53.522;9.806;2023-06-04T12:57:21;4.20;;;1.20;;
4074;SDS011;2052;53.522;9.806;2023-06-04T12:59:48;1.93;;;1.37;;
4074;SDS011;2052;53.522;9.806;2023-06-04T13:02:14;1.90;;;1.03;;
4074;SDS011;2052;53.522;9.806;2023-06-04T13:04:41;2.20;;;1.20;;
4074;SDS011;2052;53.522;9.806;2023-06-04T13:07:11;1.80;;;1.17;;
4074;SDS011;2052;53.522;9.806;2023-06-04T13:09:37;1.83;;;1.30;;
4074;SDS011;2052;53.522;9.806;2023-06-04T13:12:06;1.87;;;1.00;;
4074;SDS011;2052;53.522;9.806;2023-06-04T13:14:34;1.47;;;1.20;;
4074;SDS011;2052;53.522;9.806;2023-06-04T13:17:01;2.07;;;1.27;;
4074;SDS011;2052;53.522;9.806;2023-06-04T13:19:27;1.40;;;1.30;;
4074;SDS011;2052;53.522;9.806;2023-06-04T13:21:54;2.20;;;1.43;;
4074;SDS011;2052;53.522;9.806;2023-06-04T13:24:22;3.30;;;1.20;;
4074;SDS011;2052;53.522;9.806;2023-06-04T13:26:51;2.80;;;1.00;;
4074;SDS011;2052;53.522;9.806;2023-06-04T13:29:19;2.20;;;1.07;;
4074;SDS011;2052;53.522;9.806;2023-06-04T13:31:48;3.43;;;1.23;;
4074;SDS011;2052;53.522;9.806;2023-06-04T13:34:14;1.97;;;1.30;;
4074;SDS011;2052;53.522;9.806;2023-06-04T13:36:41;1.10;;;0.90;;
4074;SDS011;2052;53.522;9.806;2023-06-04T13:39:08;1.60;;;1.20;;
4074;SDS011;2052;53.522;9.806;2023-06-04T13:41:34;2.47;;;1.53;;
4074;SDS011;2052;53.522;9.806;2023-06-04T13:44:01;3.43;;;1.00;;
4074;SDS011;2052;53.522;9.806;2023-06-04T13:46:29;1.93;;;1.33;;
4074;SDS011;2052;53.522;9.806;2023-06-04T13:48:56;2.33;;;1.40;;
4074;SDS011;2052;53.522;9.806;2023-06-04T13:51:22;1.90;;;1.50;;
4074;SDS011;2052;53.522;9.806;2023-06-04T13:53:50;3.43;;;1.40;;
4074;SDS011;2052;53.522;9.806;2023-06-04T13:56:18;1.40;;;1.00;;
4074;SDS011;2052;53.522;9.806;2023-06-04T13:58:45;3.00;;;1.60;;
4074;SDS011;2052;53.522;9.806;2023-06-04T14:01:41;5.23;;;1.70;;
4074;SDS011;2052;53.522;9.806;2023-06-04T14:04:13;1.90;;;1.67;;
4074;SDS011;2052;53.522;9.806;2023-06-04T14:06:41;4.00;;;1.50;;
4074;SDS011;2052;53.522;9.806;2023-06-04T14:09:13;1.60;;;1.30;;
4074;SDS011;2052;53.522;9.806;2023-06-04T14:11:39;2.33;;;1.90;;
4074;SDS011;2052;53.522;9.806;2023-06-04T14:14:06;1.63;;;1.53;;
4074;SDS011;2052;53.522;9.806;2023-06-04T14:16:33;3.00;;;1.60;;
4074;SDS011;2052;53.522;9.806;2023-06-04T14:19:03;1.30;;;1.20;;
4074;SDS011;2052;53.522;9.806;2023-06-04T14:21:33;1.97;;;1.43;;
4074;SDS011;2052;53.522;9.806;2023-06-04T14:24:01;1.70;;;1.40;;
4074;SDS011;2052;53.522;9.806;2023-06-04T14:26:27;1.80;;;1.70;;
4074;SDS011;2052;53.522;9.806;2023-06-04T14:28:54;1.63;;;1.40;;
4074;SDS011;2052;53.522;9.806;2023-06-04T14:31:24;3.50;;;1.40;;
4074;SDS011;2052;53.522;9.806;2023-06-04T14:33:52;2.07;;;1.57;;
4074;SDS011;2052;53.522;9.806;2023-06-04T14:36:19;3.40;;;1.90;;
4074;SDS011;2052;53.522;9.806;2023-06-04T14:38:45;3.17;;;1.70;;
4074;SDS011;2052;53.522;9.806;2023-06-04T14:41:14;3.90;;;1.90;;
4074;SDS011;2052;53.522;9.806;2023-06-04T14:43:42;3.93;;;2.20;;
4074;SDS011;2052;53.522;9.806;2023-06-04T14:46:08;3.30;;;2.00;;
4074;SDS011;2052;53.522;9.806;2023-06-04T14:48:35;4.67;;;2.47;;
4074;SDS011;2052;53.522;9.806;2023-06-04T14:51:05;3.30;;;1.90;;
4074;SDS011;2052;53.522;9.806;2023-06-04T14:53:32;4.00;;;1.87;;
4074;SDS011;2052;53.522;9.806;2023-06-04T14:55:59;2.33;;;1.80;;
4074;SDS011;2052;53.522;9.806;2023-06-04T14:58:27;2.20;;;1.87;;
4074;SDS011;2052;53.522;9.806;2023-06-04T15:00:58;5.20;;;2.00;;
4074;SDS011;2052;53.522;9.806;2023-06-04T15:03:25;4.00;;;2.17;;
4074;SDS011;2052;53.522;9.806;2023-06-04T15:05:56;4.37;;;1.60;;
4074;SDS011;2052;53.522;9.806;2023-06-04T15:08:24;2.87;;;1.60;;
4074;SDS011;2052;53.522;9.806;2023-06-04T15:10:52;3.43;;;1.80;;
4074;SDS011;2052;53.522;9.806;2023-06-04T15:13:19;2.83;;;1.83;;
4074;SDS011;2052;53.522;9.806;2023-06-04T15:15:45;2.17;;;1.60;;
4074;SDS011;2052;53.522;9.806;2023-06-04T15:18:12;4.03;;;1.83;;
4074;SDS011;2052;53.522;9.806;2023-06-04T15:20:39;3.80;;;1.50;;
4074;SDS011;2052;53.522;9.806;2023-06-04T15:23:05;3.97;;;1.90;;
4074;SDS011;2052;53.522;9.806;2023-06-04T15:25:33;4.67;;;1.83;;